sensor_id;sensor_type;location;lat;lon;timestamp;pressure;altitude;pressure_sealevel;temperature;humidity
7662;BME280;30314;48.184;11.510;2023-04-20T00:00:59;95837.69;;;3.76;100.00
7662;BME280;30314;48.184;11.510;2023-04-20T00:03:26;95820.13;;;3.72;100.00
7662;BME280;30314;48.184;11.510;2023-04-20T00:05:54;95832.84;;;3.85;100.00
7662;BME280;30314;48.184;11.510;2023-04-20T00:08:20;95826.16;;;3.72;100.00
7662;BME280;30314;48.184;11.510;2023-04-20T00:10:47;95816.44;;;3.68;100.00
7662;BME280;30314;48.184;11.510;2023-04-20T00:13:13;95806.94;;;3.61;100.00
7662;BME280;30314;48.184;11.510;2023-04-20T00:15:40;95791.59;;;3.65;100.00
7662;BME280;30314;48.184;11.510;2023-04-20T00:18:06;95814.19;;;3.76;100.00
7662;BME280;30314;48.184;11.510;2023-04-20T00:20:33;95805.81;;;3.74;100.00
7662;BME280;30314;48.184;11.510;2023-04-20T00:23:00;95809.19;;;3.75;100.00
7662;BME280;30314;48.184;11.510;2023-04-20T00:25:27;95803.25;;;3.79;100.00
7662;BME280;30314;48.184;11.510;2023-04-20T00:27:55;95801.97;;;3.82;100.00
7662;BME280;30314;48.184;11.510;2023-04-20T00:30:22;95788.47;;;3.68;100.00
7662;BME280;30314;48.184;11.510;2023-04-20T00:32:48;95800.09;;;3.77;100.00
7662;BME280;30314;48.184;11.510;2023-04-20T00:35:15;95789.94;;;3.81;100.00
7662;BME280;30314;48.184;11.510;2023-04-20T00:37:43;95786.63;;;3.86;100.00
7662;BME280;30314;48.184;11.510;2023-04-20T00:40:09;95784.84;;;3.91;100.00
7662;BME280;30314;48.184;11.510;2023-04-20T00:42:36;95775.47;;;3.96;100.00
7662;BME280;30314;48.184;11.510;2023-04-20T00:45:03;95762.84;;;3.87;100.00
7662;BME280;30314;48.184;11.510;2023-04-20T00:47:29;95773.91;;;3.94;100.00
7662;BME280;30314;48.184;11.510;2023-04-20T00:49:56;95764.41;;;3.88;100.00
7662;BME280;30314;48.184;11.510;2023-04-20T00:52:23;95746.03;;;3.78;100.00
7662;BME280;30314;48.184;11.510;2023-04-20T00:54:49;95760.88;;;4.00;100.00
7662;BME280;30314;48.184;11.510;2023-04-20T00:57:18;95754.06;;;3.99;100.00
7662;BME280;30314;48.184;11.510;2023-04-20T00:59:49;95748.13;;;4.03;100.00
7662;BME280;30314;48.184;11.510;2023-04-20T01:02:21;95755.84;;;3.93;100.00
7662;BME280;30314;48.184;11.510;2023-04-20T01:08:05;95741.13;;;4.09;100.00
7662;BME280;30314;48.184;11.510;2023-04-20T01:10:32;95737.84;;;3.97;100.00
7662;BME280;30314;48.184;11.510;2023-04-20T01:12:58;95724.59;;;4.03;100.00
7662;BME280;30314;48.184;11.510;2023-04-20T01:15:25;95726.91;;;4.00;100.00
7662;BME280;30314;48.184;11.510;2023-04-20T01:17:52;95730.09;;;4.02;100.00
7662;BME280;30314;48.184;11.510;2023-04-20T01:20:19;95726.38;;;3.98;100.00
7662;BME280;30314;48.184;11.510;2023-04-20T01:22:47;95726.91;;;4.00;100.00
7662;BME280;30314;48.184;11.510;2023-04-20T01:25:14;95727.63;;;3.95;100.00
7662;BME280;30314;48.184;11.510;2023-04-20T01:27:41;95730.56;;;3.99;100.00
7662;BME280;30314;48.184;11.510;2023-04-20T01:30:09;95724.59;;;4.03;100.00
7662;BME280;30314;48.184;11.510;2023-04-20T01:32:36;95727.47;;;4.02;100.00
7662;BME280;30314;48.184;11.510;2023-04-20T01:35:04;95729.31;;;4.06;100.00
7662;BME280;30314;48.184;11.510;2023-04-20T01:37:31;95721.97;;;4.03;100.00
7662;BME280;30314;48.184;11.510;2023-04-20T01:40:01;95715.22;;;4.07;100.00
7662;BME280;30314;48.184;11.510;2023-04-20T01:42:29;95717.84;;;4.07;100.00
7662;BME280;30314;48.184;11.510;2023-04-20T01:44:55;95722.72;;;3.99;100.00
7662;BME280;30314;48.184;11.510;2023-04-20T01:47:22;95722.19;;;3.97;100.00
7662;BME280;30314;48.184;11.510;2023-04-20T01:49:48;95717.56;;;4.04;100.00
7662;BME280;30314;48.184;11.510;2023-04-20T01:52:16;95715.41;;;4.01;100.00
7662;BME280;30314;48.184;11.510;2023-04-20T01:54:43;95703.31;;;3.89;100.00
7662;BME280;30314;48.184;11.510;2023-04-20T01:57:09;95712.81;;;4.01;100.00
7662;BME280;30314;48.184;11.510;2023-04-20T01:59:36;95700.75;;;3.94;100.00
7662;BME280;30314;48.184;11.510;2023-04-20T02:02:02;95693.88;;;3.88;100.00
7662;BME280;30314;48.184;11.510;2023-04-20T02:04:31;95696.00;;;3.91;100.00
7662;BME280;30314;48.184;11.510;2023-04-20T02:06:58;95690.63;;;4.03;100.00
7662;BME280;30314;48.184;11.510;2023-04-20T02:09:25;95690.59;;;3.98;100.00
7662;BME280;30314;48.184;11.510;2023-04-20T02:11:52;95684.13;;;4.06;100.00
7662;BME280;30314;48.184;11.510;2023-04-20T02:14:19;95677.06;;;4.06;100.00
7662;BME280;30314;48.184;11.510;2023-04-20T02:16:45;95685.66;;;4.02;100.00
7662;BME280;30314;48.184;11.510;2023-04-20T02:19:12;95688.00;;;4.03;100.00
7662;BME280;30314;48.184;11.510;2023-04-20T02:21:39;95690.69;;;4.08;100.00
7662;BME280;30314;48.184;11.510;2023-04-20T02:24:05;95670.47;;;3.99;100.00
7662;BME280;30314;48.184;11.510;2023-04-20T02:26:32;95685.41;;;4.03;100.00
7662;BME280;30314;48.184;11.510;2023-04-20T02:28:59;95680.44;;;4.02;100.00
7662;BME280;30314;48.184;11.510;2023-04-20T02:31:25;95686.63;;;3.96;100.00
7662;BME280;30314;48.184;11.510;2023-04-20T02:33:52;95674.50;;;3.84;100.00
7662;BME280;30314;48.184;11.510;2023-04-20T02:36:19;95689.75;;;3.92;100.00
7662;BME280;30314;48.184;11.510;2023-04-20T02:38:45;95687.69;;;3.94;100.00
7662;BME280;30314;48.184;11.510;2023-04-20T02:41:12;95682.59;;;3.83;100.00
7662;BME280;30314;48.184;11.510;2023-04-20T02:43:39;95677.59;;;3.76;100.00
7662;BME280;30314;48.184;11.510;2023-04-20T02:46:05;95675.78;;;3.82;100.00
7662;BME280;30314;48.184;11.510;2023-04-20T02:48:33;95678.84;;;3.73;100.00
7662;BME280;30314;48.184;11.510;2023-04-20T02:51:00;95669.88;;;3.91;100.00
7662;BME280;30314;48.184;11.510;2023-04-20T02:53:31;95675.09;;;3.91;100.00
7662;BME280;30314;48.184;11.510;2023-04-20T02:56:10;95674.56;;;3.89;100.00
7662;BME280;30314;48.184;11.510;2023-04-20T02:58:48;95673.53;;;3.90;100.00
7662;BME280;30314;48.184;11.510;2023-04-20T03:01:43;95670.31;;;3.83;100.00
7662;BME280;30314;48.184;11.510;2023-04-20T03:04:16;95665.72;;;3.68;100.00
7662;BME280;30314;48.184;11.510;2023-04-20T03:06:53;95653.88;;;3.60;100.00
7662;BME280;30314;48.184;11.510;2023-04-20T03:09:25;95655.97;;;3.58;100.00
7662;BME280;30314;48.184;11.510;2023-04-20T03:12:02;95649.78;;;3.64;100.00
7662;BME280;30314;48.184;11.510;2023-04-20T03:14:47;95646.16;;;3.71;100.00
7662;BME280;30314;48.184;11.510;2023-04-20T03:17:16;95644.06;;;3.68;100.00
7662;BME280;30314;48.184;11.510;2023-04-20T03:19:43;95642.19;;;3.63;100.00
7662;BME280;30314;48.184;11.510;2023-04-20T03:22:09;95632.81;;;3.67;100.00
7662;BME280;30314;48.184;11.510;2023-04-20T03:24:36;95642.78;;;3.70;100.00
7662;BME280;30314;48.184;11.510;2023-04-20T03:27:13;95646.22;;;3.76;100.00
7662;BME280;30314;48.184;11.510;2023-04-20T03:29:51;95641.53;;;3.78;100.00
7662;BME280;30314;48.184;11.510;2023-04-20T03:32:18;95636.66;;;3.59;100.00
7662;BME280;30314;48.184;11.510;2023-04-20T03:34:45;95638.03;;;3.67;100.00
7662;BME280;30314;48.184;11.510;2023-04-20T03:37:12;95640.78;;;3.55;100.00
7662;BME280;30314;48.184;11.510;2023-04-20T03:39:38;95645.88;;;3.67;100.00
7662;BME280;30314;48.184;11.510;2023-04-20T03:42:05;95643.06;;;3.74;100.00
7662;BME280;30314;48.184;11.510;2023-04-20T03:44:32;95633.56;;;3.62;100.00
7662;BME280;30314;48.184;11.510;2023-04-20T03:46:58;95638.53;;;3.64;100.00
7662;BME280;30314;48.184;11.510;2023-04-20T03:49:25;95634.09;;;3.64;100.00
7662;BME280;30314;48.184;11.510;2023-04-20T03:51:51;95637.59;;;3.75;100.00
7662;BME280;30314;48.184;11.510;2023-04-20T03:54:18;95637.78;;;3.69;100.00
7662;BME280;30314;48.184;11.510;2023-04-20T03:56:45;95637.78;;;3.69;100.00
7662;BME280;30314;48.184;11.510;2023-04-20T03:59:12;95636.06;;;3.79;100.00
7662;BME280;30314;48.184;11.510;2023-04-20T04:01:41;95631.94;;;3.84;100.00
7662;BME280;30314;48.184;11.510;2023-04-20T04:04:09;95627.44;;;3.79;100.00
7662;BME280;30314;48.184;11.510;2023-04-20T04:06:36;95621.63;;;3.72;100.00
7662;BME280;30314;48.184;11.510;2023-04-20T04:09:04;95615.34;;;3.73;100.00
7662;BME280;30314;48.184;11.510;2023-04-20T04:11:31;95604.38;;;3.71;100.00
7662;BME280;30314;48.184;11.510;2023-04-20T04:13:57;95609.91;;;3.74;100.00
7662;BME280;30314;48.184;11.510;2023-04-20T04:16:26;95618.06;;;3.83;100.00
7662;BME280;30314;48.184;11.510;2023-04-20T04:18:53;95615.97;;;3.80;100.00
7662;BME280;30314;48.184;11.510;2023-04-20T04:21:19;95622.97;;;3.74;100.00
7662;BME280;30314;48.184;11.510;2023-04-20T04:23:53;95617.50;;;3.76;100.00
7662;BME280;30314;48.184;11.510;2023-04-20T04:26:32;95614.59;;;3.72;100.00
7662;BME280;30314;48.184;11.510;2023-04-20T04:28:59;95612.81;;;3.78;100.00
7662;BME280;30314;48.184;11.510;2023-04-20T04:31:25;95616.94;;;3.74;100.00
7662;BME280;30314;48.184;11.510;2023-04-20T04:33:59;95617.41;;;3.65;100.00
7662;BME280;30314;48.184;11.510;2023-04-20T04:36:31;95608.25;;;3.68;100.00
7662;BME280;30314;48.184;11.510;2023-04-20T04:38:59;95622.75;;;3.81;100.00
7662;BME280;30314;48.184;11.510;2023-04-20T04:41:26;95607.19;;;3.64;100.00
7662;BME280;30314;48.184;11.510;2023-04-20T04:44:03;95613.75;;;3.66;100.00
7662;BME280;30314;48.184;11.510;2023-04-20T04:46:32;95615.75;;;3.59;100.00
7662;BME280;30314;48.184;11.510;2023-04-20T04:48:59;95615.03;;;3.64;100.00
7662;BME280;30314;48.184;11.510;2023-04-20T04:51:29;95618.72;;;3.68;100.00
7662;BME280;30314;48.184;11.510;2023-04-20T04:53:56;95615.81;;;3.64;100.00
7662;BME280;30314;48.184;11.510;2023-04-20T04:56:23;95617.34;;;3.60;100.00
7662;BME280;30314;48.184;11.510;2023-04-20T04:58:50;95620.22;;;3.59;100.00
7662;BME280;30314;48.184;11.510;2023-04-20T05:01:17;95612.09;;;3.60;100.00
7662;BME280;30314;48.184;11.510;2023-04-20T05:03:43;95606.69;;;3.67;100.00
7662;BME280;30314;48.184;11.510;2023-04-20T05:06:10;95605.09;;;3.66;100.00
7662;BME280;30314;48.184;11.510;2023-04-20T05:08:36;95613.16;;;3.59;100.00
7662;BME280;30314;48.184;11.510;2023-04-20T05:11:03;95622.09;;;3.63;100.00
7662;BME280;30314;48.184;11.510;2023-04-20T05:13:30;95616.06;;;3.63;100.00
7662;BME280;30314;48.184;11.510;2023-04-20T05:15:56;95616.28;;;3.61;100.00
7662;BME280;30314;48.184;11.510;2023-04-20T05:18:23;95609.56;;;3.65;100.00
7662;BME280;30314;48.184;11.510;2023-04-20T05:20:49;95615.81;;;3.64;100.00
7662;BME280;30314;48.184;11.510;2023-04-20T05:23:16;95607.84;;;3.49;100.00
7662;BME280;30314;48.184;11.510;2023-04-20T05:25:42;95624.44;;;3.65;100.00
7662;BME280;30314;48.184;11.510;2023-04-20T05:28:09;95624.09;;;3.56;100.00
7662;BME280;30314;48.184;11.510;2023-04-20T05:30:36;95618.88;;;3.56;100.00
7662;BME280;30314;48.184;11.510;2023-04-20T05:33:02;95617.34;;;3.60;100.00
7662;BME280;30314;48.184;11.510;2023-04-20T05:35:29;95608.00;;;3.64;100.00
7662;BME280;30314;48.184;11.510;2023-04-20T05:37:56;95609.03;;;3.63;100.00
7662;BME280;30314;48.184;11.510;2023-04-20T05:40:25;95609.28;;;3.67;100.00
7662;BME280;30314;48.184;11.510;2023-04-20T05:42:52;95605.94;;;3.72;100.00
7662;BME280;30314;48.184;11.510;2023-04-20T05:45:18;95606.94;;;3.65;100.00
7662;BME280;30314;48.184;11.510;2023-04-20T05:47:55;95602.03;;;3.69;100.00
7662;BME280;30314;48.184;11.510;2023-04-20T05:50:23;95597.06;;;3.73;100.00
7662;BME280;30314;48.184;11.510;2023-04-20T05:52:50;95598.63;;;3.69;100.00
7662;BME280;30314;48.184;11.510;2023-04-20T05:55:18;95596.84;;;3.74;100.00
7662;BME280;30314;48.184;11.510;2023-04-20T05:57:48;95609.59;;;3.71;100.00
7662;BME280;30314;48.184;11.510;2023-04-20T06:00:15;95611.72;;;3.74;100.00
7662;BME280;30314;48.184;11.510;2023-04-20T06:02:42;95603.41;;;3.77;100.00
7662;BME280;30314;48.184;11.510;2023-04-20T06:05:09;95610.66;;;3.75;100.00
7662;BME280;30314;48.184;11.510;2023-04-20T06:07:37;95585.88;;;3.77;100.00
7662;BME280;30314;48.184;11.510;2023-04-20T06:10:04;95598.75;;;3.84;100.00
7662;BME280;30314;48.184;11.510;2023-04-20T06:12:31;95601.44;;;3.94;100.00
7662;BME280;30314;48.184;11.510;2023-04-20T06:14:58;95600.44;;;4.01;100.00
7662;BME280;30314;48.184;11.510;2023-04-20T06:17:25;95600.16;;;3.97;100.00
7662;BME280;30314;48.184;11.510;2023-04-20T06:19:52;95598.31;;;3.98;100.00
7662;BME280;30314;48.184;11.510;2023-04-20T06:22:19;95598.03;;;3.94;100.00
7662;BME280;30314;48.184;11.510;2023-04-20T06:24:45;95599.38;;;3.97;100.00
7662;BME280;30314;48.184;11.510;2023-04-20T06:27:12;95592.06;;;3.99;100.00
7662;BME280;30314;48.184;11.510;2023-04-20T06:29:39;95580.47;;;3.84;100.00
7662;BME280;30314;48.184;11.510;2023-04-20T06:32:05;95584.84;;;3.78;100.00
7662;BME280;30314;48.184;11.510;2023-04-20T06:34:32;95579.91;;;3.82;100.00
7662;BME280;30314;48.184;11.510;2023-04-20T06:36:58;95577.91;;;3.89;100.00
7662;BME280;30314;48.184;11.510;2023-04-20T06:39:25;95579.41;;;3.85;100.00
7662;BME280;30314;48.184;11.510;2023-04-20T06:41:52;95573.69;;;3.88;100.00
7662;BME280;30314;48.184;11.510;2023-04-20T06:44:20;95581.78;;;3.87;100.00
7662;BME280;30314;48.184;11.510;2023-04-20T06:46:46;95566.16;;;3.92;100.00
7662;BME280;30314;48.184;11.510;2023-04-20T06:49:13;95571.91;;;3.94;100.00
7662;BME280;30314;48.184;11.510;2023-04-20T06:51:40;95574.53;;;3.94;100.00
7662;BME280;30314;48.184;11.510;2023-04-20T06:54:06;95571.91;;;3.94;100.00
7662;BME280;30314;48.184;11.510;2023-04-20T06:56:33;95578.47;;;3.97;100.00
7662;BME280;30314;48.184;11.510;2023-04-20T06:59:01;95579.00;;;3.99;100.00
7662;BME280;30314;48.184;11.510;2023-04-20T07:01:27;95571.88;;;3.89;100.00
7662;BME280;30314;48.184;11.510;2023-04-20T07:03:54;95572.69;;;3.89;100.00
7662;BME280;30314;48.184;11.510;2023-04-20T07:06:21;95558.56;;;3.90;100.00
7662;BME280;30314;48.184;11.510;2023-04-20T07:08:47;95573.25;;;3.97;100.00
7662;BME280;30314;48.184;11.510;2023-04-20T07:11:14;95579.63;;;4.11;100.00
7662;BME280;30314;48.184;11.510;2023-04-20T07:13:41;95573.28;;;4.02;100.00
7662;BME280;30314;48.184;11.510;2023-04-20T07:16:07;95576.91;;;3.96;100.00
7662;BME280;30314;48.184;11.510;2023-04-20T07:18:35;95571.16;;;3.99;100.00
7662;BME280;30314;48.184;11.510;2023-04-20T07:21:02;95571.38;;;3.92;100.00
7662;BME280;30314;48.184;11.510;2023-04-20T07:23:28;95569.06;;;3.96;100.00
7662;BME280;30314;48.184;11.510;2023-04-20T07:25:55;95577.47;;;4.03;100.00
7662;BME280;30314;48.184;11.510;2023-04-20T07:28:21;95583.16;;;3.94;100.00
7662;BME280;30314;48.184;11.510;2023-04-20T07:30:48;95587.63;;;3.99;100.00
7662;BME280;30314;48.184;11.510;2023-04-20T07:33:15;95590.47;;;3.92;100.00
7662;BME280;30314;48.184;11.510;2023-04-20T07:35:41;95593.16;;;4.03;100.00
7662;BME280;30314;48.184;11.510;2023-04-20T07:38:08;95603.53;;;3.92;100.00
7662;BME280;30314;48.184;11.510;2023-04-20T07:40:34;95605.44;;;4.02;100.00
7662;BME280;30314;48.184;11.510;2023-04-20T07:43:01;95605.19;;;4.04;100.00
7662;BME280;30314;48.184;11.510;2023-04-20T07:45:27;95608.25;;;3.96;100.00
7662;BME280;30314;48.184;11.510;2023-04-20T07:47:54;95604.84;;;3.95;100.00
7662;BME280;30314;48.184;11.510;2023-04-20T07:50:22;95610.03;;;3.90;100.00
7662;BME280;30314;48.184;11.510;2023-04-20T07:52:49;95617.34;;;3.88;100.00
7662;BME280;30314;48.184;11.510;2023-04-20T07:55:16;95611.09;;;3.94;100.00
7662;BME280;30314;48.184;11.510;2023-04-20T07:57:44;95605.94;;;3.99;100.00
7662;BME280;30314;48.184;11.510;2023-04-20T08:00:11;95605.09;;;3.93;100.00
7662;BME280;30314;48.184;11.510;2023-04-20T08:02:38;95600.91;;;3.92;100.00
7662;BME280;30314;48.184;11.510;2023-04-20T08:05:05;95592.88;;;3.99;100.00
7662;BME280;30314;48.184;11.510;2023-04-20T08:07:33;95592.88;;;3.99;100.00
7662;BME280;30314;48.184;11.510;2023-04-20T08:09:59;95591.63;;;4.07;100.00
7662;BME280;30314;48.184;11.510;2023-04-20T08:12:28;95590.28;;;4.04;100.00
7662;BME280;30314;48.184;11.510;2023-04-20T08:14:54;95586.38;;;4.07;100.00
7662;BME280;30314;48.184;11.510;2023-04-20T08:17:26;95581.41;;;4.05;100.00
7662;BME280;30314;48.184;11.510;2023-04-20T08:19:53;95583.78;;;4.07;100.00
7662;BME280;30314;48.184;11.510;2023-04-20T08:22:19;95585.84;;;4.05;100.00
7662;BME280;30314;48.184;11.510;2023-04-20T08:24:46;95589.28;;;4.11;100.00
7662;BME280;30314;48.184;11.510;2023-04-20T08:27:12;95591.84;;;4.05;100.00
7662;BME280;30314;48.184;11.510;2023-04-20T08:29:39;95581.16;;;4.07;100.00
7662;BME280;30314;48.184;11.510;2023-04-20T08:32:06;95582.81;;;4.18;100.00
7662;BME280;30314;48.184;11.510;2023-04-20T08:34:38;95586.50;;;4.22;100.00
7662;BME280;30314;48.184;11.510;2023-04-20T08:37:04;95596.94;;;4.22;100.00
7662;BME280;30314;48.184;11.510;2023-04-20T08:39:31;95591.69;;;4.17;100.00
7662;BME280;30314;48.184;11.510;2023-04-20T08:41:58;95574.38;;;4.11;100.00
7662;BME280;30314;48.184;11.510;2023-04-20T08:44:24;95585.44;;;4.18;100.00
7662;BME280;30314;48.184;11.510;2023-04-20T08:46:51;95585.44;;;4.18;100.00
7662;BME280;30314;48.184;11.510;2023-04-20T08:49:18;95581.03;;;4.24;100.00
7662;BME280;30314;48.184;11.510;2023-04-20T08:51:46;95583.34;;;4.20;100.00
7662;BME280;30314;48.184;11.510;2023-04-20T08:54:13;95589.94;;;4.28;100.00
7662;BME280;30314;48.184;11.510;2023-04-20T08:56:45;95595.41;;;4.27;100.00
7662;BME280;30314;48.184;11.510;2023-04-20T08:59:13;95579.97;;;4.25;100.00
7662;BME280;30314;48.184;11.510;2023-04-20T09:01:40;95595.75;;;4.35;100.00
7662;BME280;30314;48.184;11.510;2023-04-20T09:06:45;95599.41;;;4.40;100.00
7662;BME280;30314;48.184;11.510;2023-04-20T09:09:12;95596.00;;;4.39;100.00
7662;BME280;30314;48.184;11.510;2023-04-20T09:11:39;95596.28;;;4.43;100.00
7662;BME280;30314;48.184;11.510;2023-04-20T09:14:10;95591.56;;;4.40;100.00
7662;BME280;30314;48.184;11.510;2023-04-20T09:16:51;95599.97;;;4.47;100.00
7662;BME280;30314;48.184;11.510;2023-04-20T09:19:22;95598.97;;;4.53;100.00
7662;BME280;30314;48.184;11.510;2023-04-20T09:21:51;95594.84;;;4.62;100.00
7662;BME280;30314;48.184;11.510;2023-04-20T09:24:19;95590.31;;;4.53;100.00
7662;BME280;30314;48.184;11.510;2023-04-20T09:26:46;95599.03;;;4.63;100.00
7662;BME280;30314;48.184;11.510;2023-04-20T09:29:18;95600.78;;;4.53;100.00
7662;BME280;30314;48.184;11.510;2023-04-20T09:31:45;95599.22;;;4.51;100.00
7662;BME280;30314;48.184;11.510;2023-04-20T09:34:12;95595.53;;;4.47;100.00
7662;BME280;30314;48.184;11.510;2023-04-20T09:36:45;95590.50;;;4.35;100.00
7662;BME280;30314;48.184;11.510;2023-04-20T09:39:15;95586.56;;;4.33;100.00
7662;BME280;30314;48.184;11.510;2023-04-20T09:41:42;95597.03;;;4.33;100.00
7662;BME280;30314;48.184;11.510;2023-04-20T09:44:09;95589.13;;;4.28;100.00
7662;BME280;30314;48.184;11.510;2023-04-20T09:46:38;95561.41;;;4.27;100.00
7662;BME280;30314;48.184;11.510;2023-04-20T09:49:07;95568.03;;;4.40;100.00
7662;BME280;30314;48.184;11.510;2023-04-20T09:51:36;95556.81;;;4.44;100.00
7662;BME280;30314;48.184;11.510;2023-04-20T09:54:05;95556.31;;;4.53;100.00
7662;BME280;30314;48.184;11.510;2023-04-20T09:56:33;95555.84;;;4.56;100.00
7662;BME280;30314;48.184;11.510;2023-04-20T09:59:01;95553.81;;;4.73;100.00
7662;BME280;30314;48.184;11.510;2023-04-20T10:01:30;95551.97;;;4.63;100.00
7662;BME280;30314;48.184;11.510;2023-04-20T10:03:59;95543.56;;;4.61;100.00
7662;BME280;30314;48.184;11.510;2023-04-20T10:06:31;95551.72;;;4.75;100.00
7662;BME280;30314;48.184;11.510;2023-04-20T10:09:00;95540.72;;;4.68;100.00
7662;BME280;30314;48.184;11.510;2023-04-20T10:11:31;95546.50;;;4.75;100.00
7662;BME280;30314;48.184;11.510;2023-04-20T10:16:43;95550.97;;;4.80;100.00
7662;BME280;30314;48.184;11.510;2023-04-20T10:19:11;95547.53;;;4.74;100.00
7662;BME280;30314;48.184;11.510;2023-04-20T10:21:46;95550.69;;;4.71;100.00
7662;BME280;30314;48.184;11.510;2023-04-20T10:24:14;95557.22;;;4.74;100.00
7662;BME280;30314;48.184;11.510;2023-04-20T10:26:45;95568.25;;;4.81;100.00
7662;BME280;30314;48.184;11.510;2023-04-20T10:29:30;95542.06;;;4.81;100.00
7662;BME280;30314;48.184;11.510;2023-04-20T10:31:58;95542.09;;;4.86;100.00
7662;BME280;30314;48.184;11.510;2023-04-20T10:34:32;95539.25;;;4.98;100.00
7662;BME280;30314;48.184;11.510;2023-04-20T10:37:09;95546.03;;;4.94;100.00
7662;BME280;30314;48.184;11.510;2023-04-20T10:39:44;95537.41;;;4.88;100.00
7662;BME280;30314;48.184;11.510;2023-04-20T10:42:12;95542.38;;;4.90;100.00
7662;BME280;30314;48.184;11.510;2023-04-20T10:44:53;95532.41;;;4.92;100.00
7662;BME280;30314;48.184;11.510;2023-04-20T10:47:30;95536.38;;;4.89;100.00
7662;BME280;30314;48.184;11.510;2023-04-20T10:50:08;95535.31;;;4.96;100.00
7662;BME280;30314;48.184;11.510;2023-04-20T10:52:38;95530.59;;;4.92;100.00
7662;BME280;30314;48.184;11.510;2023-04-20T10:55:16;95532.97;;;4.99;100.00
7662;BME280;30314;48.184;11.510;2023-04-20T10:57:46;95541.34;;;4.96;100.00
7662;BME280;30314;48.184;11.510;2023-04-20T11:00:19;95533.22;;;4.98;100.00
7662;BME280;30314;48.184;11.510;2023-04-20T11:02:47;95522.25;;;5.01;100.00
7662;BME280;30314;48.184;11.510;2023-04-20T11:05:16;95515.97;;;5.02;100.00
7662;BME280;30314;48.184;11.510;2023-04-20T11:07:51;95512.06;;;5.15;100.00
7662;BME280;30314;48.184;11.510;2023-04-20T11:10:20;95508.44;;;5.26;100.00
7662;BME280;30314;48.184;11.510;2023-04-20T11:12:47;95517.06;;;5.27;100.00
7662;BME280;30314;48.184;11.510;2023-04-20T11:15:14;95512.63;;;5.27;100.00
7662;BME280;30314;48.184;11.510;2023-04-20T11:17:41;95497.41;;;5.14;100.00
7662;BME280;30314;48.184;11.510;2023-04-20T11:20:12;95508.69;;;5.25;100.00
7662;BME280;30314;48.184;11.510;2023-04-20T11:22:42;95494.31;;;5.38;100.00
7662;BME280;30314;48.184;11.510;2023-04-20T11:25:10;95486.97;;;5.34;100.00
7662;BME280;30314;48.184;11.510;2023-04-20T11:27:38;95491.97;;;5.41;100.00
7662;BME280;30314;48.184;11.510;2023-04-20T11:30:06;95497.97;;;5.57;100.00
7662;BME280;30314;48.184;11.510;2023-04-20T11:32:34;95503.22;;;5.68;100.00
7662;BME280;30314;48.184;11.510;2023-04-20T11:35:05;95475.97;;;5.53;100.00
7662;BME280;30314;48.184;11.510;2023-04-20T11:37:49;95495.09;;;5.69;100.00
7662;BME280;30314;48.184;11.510;2023-04-20T11:40:19;95488.56;;;5.67;100.00
7662;BME280;30314;48.184;11.510;2023-04-20T11:42:46;95490.63;;;5.80;100.00
7662;BME280;30314;48.184;11.510;2023-04-20T11:45:13;95485.91;;;5.82;100.00
7662;BME280;30314;48.184;11.510;2023-04-20T11:47:39;95480.41;;;5.84;100.00
7662;BME280;30314;48.184;11.510;2023-04-20T11:50:07;95485.13;;;5.87;100.00
7662;BME280;30314;48.184;11.510;2023-04-20T11:52:35;95467.31;;;5.73;100.00
7662;BME280;30314;48.184;11.510;2023-04-20T11:55:02;95480.66;;;5.82;100.00
7662;BME280;30314;48.184;11.510;2023-04-20T11:57:29;95478.84;;;5.83;100.00
7662;BME280;30314;48.184;11.510;2023-04-20T11:59:55;95471.22;;;5.91;100.00
7662;BME280;30314;48.184;11.510;2023-04-20T12:02:22;95470.44;;;6.01;100.00
7662;BME280;30314;48.184;11.510;2023-04-20T12:04:49;95472.28;;;5.90;100.00
7662;BME280;30314;48.184;11.510;2023-04-20T12:07:15;95480.91;;;6.01;100.00
7662;BME280;30314;48.184;11.510;2023-04-20T12:09:42;95479.84;;;6.02;100.00
7662;BME280;30314;48.184;11.510;2023-04-20T12:12:09;95463.09;;;5.98;100.00
7662;BME280;30314;48.184;11.510;2023-04-20T12:14:36;95472.50;;;6.15;100.00
7662;BME280;30314;48.184;11.510;2023-04-20T12:17:03;95475.91;;;6.15;100.00
7662;BME280;30314;48.184;11.510;2023-04-20T12:19:30;95475.06;;;6.30;100.00
7662;BME280;30314;48.184;11.510;2023-04-20T12:21:57;95466.13;;;6.31;100.00
7662;BME280;30314;48.184;11.510;2023-04-20T12:24:23;95473.72;;;6.38;100.00
7662;BME280;30314;48.184;11.510;2023-04-20T12:26:50;95460.66;;;6.23;100.00
7662;BME280;30314;48.184;11.510;2023-04-20T12:29:17;95464.34;;;6.22;100.00
7662;BME280;30314;48.184;11.510;2023-04-20T12:31:44;95466.44;;;6.30;100.00
7662;BME280;30314;48.184;11.510;2023-04-20T12:34:10;95463.81;;;6.30;100.00
7662;BME280;30314;48.184;11.510;2023-04-20T12:36:37;95459.63;;;6.29;100.00
7662;BME280;30314;48.184;11.510;2023-04-20T12:39:04;95459.31;;;6.30;100.00
7662;BME280;30314;48.184;11.510;2023-04-20T12:41:30;95454.84;;;6.41;100.00
7662;BME280;30314;48.184;11.510;2023-04-20T12:43:58;95448.03;;;6.35;100.00
7662;BME280;30314;48.184;11.510;2023-04-20T12:46:25;95449.34;;;6.38;100.00
7662;BME280;30314;48.184;11.510;2023-04-20T12:48:51;95446.44;;;6.44;100.00
7662;BME280;30314;48.184;11.510;2023-04-20T12:51:18;95440.13;;;6.40;100.00
7662;BME280;30314;48.184;11.510;2023-04-20T12:53:44;95453.78;;;6.42;100.00
7662;BME280;30314;48.184;11.510;2023-04-20T12:56:11;95452.75;;;6.38;100.00
7662;BME280;30314;48.184;11.510;2023-04-20T12:58:37;95450.91;;;6.39;100.00
7662;BME280;30314;48.184;11.510;2023-04-20T13:01:04;95470.06;;;6.39;100.00
7662;BME280;30314;48.184;11.510;2023-04-20T13:03:31;95456.41;;;6.37;100.00
7662;BME280;30314;48.184;11.510;2023-04-20T13:05:59;95462.47;;;6.38;100.00
7662;BME280;30314;48.184;11.510;2023-04-20T13:08:25;95456.44;;;6.32;100.00
7662;BME280;30314;48.184;11.510;2023-04-20T13:10:52;95458.56;;;6.25;100.00
7662;BME280;30314;48.184;11.510;2023-04-20T13:13:19;95458.28;;;6.37;100.00